createdAt,value
2023-03-25T00:00:16.906Z,88.64
2023-03-25T00:02:47.608Z,89.28
2023-03-25T00:05:16.376Z,89.00
2023-03-25T00:07:45.995Z,88.89
2023-03-25T00:10:13.920Z,88.88
2023-03-25T00:12:42.922Z,89.08
2023-03-25T00:15:11.530Z,88.95
2023-03-25T00:17:38.587Z,88.89
2023-03-25T00:20:09.900Z,89.11
2023-03-25T00:22:40.996Z,89.13
2023-03-25T00:25:09.589Z,89.22
2023-03-25T00:27:36.810Z,89.22
2023-03-25T00:30:04.454Z,89.14
2023-03-25T00:32:31.208Z,89.39
2023-03-25T00:34:57.896Z,89.22
2023-03-25T00:37:25.686Z,89.34
2023-03-25T00:39:52.323Z,89.34
2023-03-25T00:42:26.394Z,89.56
2023-03-25T00:44:53.970Z,89.72
2023-03-25T00:47:21.995Z,90.00
2023-03-25T00:49:50.027Z,90.14
2023-03-25T00:52:16.897Z,90.01
2023-03-25T00:54:45.870Z,90.15
2023-03-25T00:57:12.842Z,90.21
2023-03-25T00:59:39.622Z,90.66
2023-03-25T01:02:07.180Z,90.50
2023-03-25T01:04:35.372Z,90.68
2023-03-25T01:07:03.618Z,90.99
2023-03-25T01:09:31.302Z,91.21
2023-03-25T01:11:58.127Z,90.82
2023-03-25T01:14:27.404Z,91.17
2023-03-25T01:16:54.936Z,91.14
2023-03-25T01:19:22.868Z,91.17
2023-03-25T01:21:49.671Z,91.35
2023-03-25T01:24:16.760Z,91.34
2023-03-25T01:26:45.925Z,91.47
2023-03-25T01:29:14.943Z,91.30
2023-03-25T01:31:41.745Z,91.43
2023-03-25T01:34:08.780Z,91.48
2023-03-25T01:36:41.608Z,91.60
2023-03-25T01:39:09.143Z,91.65
2023-03-25T01:41:49.036Z,91.78
2023-03-25T01:44:19.398Z,91.80
2023-03-25T01:46:53.283Z,91.52
2023-03-25T01:49:30.269Z,91.67
2023-03-25T01:52:02.680Z,91.63
2023-03-25T01:54:29.516Z,91.61
2023-03-25T01:56:56.559Z,91.45
2023-03-25T01:59:27.197Z,91.80
2023-03-25T02:01:56.114Z,91.68
2023-03-25T02:05:03.979Z,91.87
2023-03-25T02:07:37.917Z,91.96
2023-03-25T02:10:07.755Z,91.81
2023-03-25T02:12:34.581Z,91.86
2023-03-25T02:15:04.477Z,92.06
2023-03-25T02:18:00.332Z,91.99
2023-03-25T02:21:08.332Z,92.15
2023-03-25T02:23:48.104Z,92.22
2023-03-25T02:26:32.922Z,92.21
2023-03-25T02:29:55.196Z,92.39
2023-03-25T02:32:40.408Z,92.28
2023-03-25T02:35:42.253Z,92.31
2023-03-25T02:39:04.581Z,92.54
2023-03-25T02:41:55.999Z,92.25
2023-03-25T02:44:36.399Z,92.44
2023-03-25T02:47:09.075Z,92.30
2023-03-25T02:49:41.018Z,92.43
2023-03-25T02:52:39.845Z,92.58
2023-03-25T02:55:10.803Z,92.32
2023-03-25T02:57:46.599Z,92.62
2023-03-25T03:03:04.323Z,92.65
2023-03-25T03:05:36.053Z,92.70
2023-03-25T03:08:27.608Z,92.76
2023-03-25T03:11:15.684Z,92.70
2023-03-25T03:14:12.008Z,92.98
2023-03-25T03:16:58.584Z,92.78
2023-03-25T03:19:46.686Z,92.80
2023-03-25T03:22:45.758Z,93.11
2023-03-25T03:25:28.349Z,93.22
2023-03-25T03:28:38.997Z,93.26
2023-03-25T03:31:48.234Z,93.19
2023-03-25T03:34:30.789Z,93.34
2023-03-25T03:37:00.779Z,93.59
2023-03-25T03:39:36.481Z,93.33
2023-03-25T03:42:14.201Z,93.71
2023-03-25T03:44:44.464Z,93.61
2023-03-25T03:47:16.471Z,93.82
2023-03-25T03:49:48.033Z,93.92
2023-03-25T03:52:21.606Z,94.22
2023-03-25T03:54:54.851Z,93.96
2023-03-25T03:57:30.422Z,94.09
2023-03-25T04:00:02.612Z,93.94
2023-03-25T04:02:34.586Z,94.28
2023-03-25T04:05:01.762Z,94.24
2023-03-25T04:07:42.390Z,94.39
2023-03-25T04:10:15.129Z,94.48
2023-03-25T04:12:50.419Z,94.47
2023-03-25T04:15:17.612Z,94.29
2023-03-25T04:17:44.673Z,94.91
2023-03-25T04:20:15.702Z,94.65
2023-03-25T04:22:45.679Z,95.00
2023-03-25T04:25:14.127Z,95.00
2023-03-25T04:27:41.202Z,95.08
2023-03-25T04:30:09.248Z,95.00
2023-03-25T04:32:36.038Z,95.15
2023-03-25T04:35:03.571Z,95.03
2023-03-25T04:37:30.307Z,95.20
2023-03-25T04:40:00.237Z,95.07
2023-03-25T04:42:32.875Z,95.22
2023-03-25T04:45:00.079Z,95.23
2023-03-25T04:47:27.750Z,95.11
2023-03-25T04:49:54.499Z,95.23
2023-03-25T04:52:21.303Z,95.05
2023-03-25T04:54:48.030Z,95.33
2023-03-25T04:57:15.399Z,95.22
2023-03-25T04:59:42.216Z,95.14
2023-03-25T05:02:13.484Z,95.32
2023-03-25T05:04:47.830Z,95.41
2023-03-25T05:07:16.604Z,95.18
2023-03-25T05:09:43.448Z,95.44
2023-03-25T05:12:11.519Z,95.25
2023-03-25T05:14:38.375Z,95.59
2023-03-25T05:17:05.041Z,95.59
2023-03-25T05:19:35.156Z,95.38
2023-03-25T05:22:03.142Z,95.74
2023-03-25T05:24:30.586Z,95.81
2023-03-25T05:26:57.236Z,95.75
2023-03-25T05:29:23.997Z,95.54
2023-03-25T05:31:50.696Z,95.87
2023-03-25T05:34:17.691Z,95.97
2023-03-25T05:36:44.688Z,95.78
2023-03-25T05:39:11.824Z,95.96
2023-03-25T05:41:41.750Z,96.04
2023-03-25T05:44:10.231Z,96.15
2023-03-25T05:46:37.013Z,96.16
2023-03-25T05:49:03.866Z,96.25
2023-03-25T05:51:34.233Z,96.46
2023-03-25T05:54:01.847Z,96.74
2023-03-25T05:56:29.462Z,96.51
2023-03-25T05:58:57.731Z,96.34
2023-03-25T06:01:33.715Z,96.64
2023-03-25T06:04:02.642Z,96.62
2023-03-25T06:06:30.503Z,96.77
2023-03-25T06:08:57.813Z,96.71
2023-03-25T06:11:24.515Z,96.96
2023-03-25T06:13:51.255Z,97.15
2023-03-25T06:16:20.381Z,97.08
2023-03-25T06:18:50.856Z,97.35
2023-03-25T06:21:19.839Z,97.29
2023-03-25T06:23:49.514Z,97.41
2023-03-25T06:26:20.106Z,97.67
2023-03-25T06:28:47.130Z,97.80
2023-03-25T06:31:16.873Z,97.73
2023-03-25T06:33:44.442Z,97.85
2023-03-25T06:36:12.786Z,98.04
2023-03-25T06:38:40.036Z,97.90
2023-03-25T06:41:07.308Z,97.87
2023-03-25T06:43:34.801Z,97.91
2023-03-25T06:46:01.546Z,97.83
2023-03-25T06:48:28.333Z,97.76
2023-03-25T06:50:55.480Z,98.04
2023-03-25T06:53:22.390Z,98.19
2023-03-25T06:55:50.461Z,97.96
2023-03-25T06:58:18.426Z,97.77
2023-03-25T07:00:46.930Z,97.83
2023-03-25T07:03:13.721Z,97.82
2023-03-25T07:05:42.493Z,97.69
2023-03-25T07:08:09.288Z,97.69
2023-03-25T07:10:35.933Z,97.89
2023-03-25T07:13:02.672Z,97.76
2023-03-25T07:15:29.332Z,97.60
2023-03-25T07:17:56.159Z,97.58
2023-03-25T07:20:23.019Z,97.64
2023-03-25T07:22:49.716Z,97.51
2023-03-25T07:25:16.434Z,97.43
2023-03-25T07:27:43.106Z,97.47
2023-03-25T07:30:10.256Z,97.45
2023-03-25T07:32:37.001Z,97.50
2023-03-25T07:35:04.403Z,97.50
2023-03-25T07:37:31.118Z,97.40
2023-03-25T07:39:57.801Z,97.27
2023-03-25T07:42:24.473Z,97.41
2023-03-25T07:44:52.054Z,97.36
2023-03-25T07:47:18.719Z,97.54
2023-03-25T07:49:47.851Z,97.62
2023-03-25T07:52:14.508Z,97.51
2023-03-25T07:54:41.149Z,97.08
2023-03-25T07:57:07.930Z,97.00
2023-03-25T07:59:34.753Z,96.67
2023-03-25T08:02:01.540Z,96.70
2023-03-25T08:04:28.322Z,96.65
2023-03-25T08:06:55.121Z,96.66
2023-03-25T08:09:21.835Z,96.56
2023-03-25T08:11:49.081Z,96.40
2023-03-25T08:14:15.766Z,96.27
2023-03-25T08:16:42.501Z,96.18
2023-03-25T08:19:09.197Z,96.33
2023-03-25T08:21:35.824Z,96.30
2023-03-25T08:24:04.844Z,96.32
2023-03-25T08:26:35.394Z,96.06
2023-03-25T08:29:02.836Z,96.08
2023-03-25T08:31:32.122Z,95.65
2023-03-25T08:34:00.581Z,95.20
2023-03-25T08:36:27.830Z,95.28
2023-03-25T08:38:54.927Z,95.17
2023-03-25T08:41:21.662Z,94.90
2023-03-25T08:43:49.298Z,95.16
2023-03-25T08:46:16.381Z,94.80
2023-03-25T08:48:44.030Z,94.50
2023-03-25T08:51:11.779Z,94.34
2023-03-25T08:53:38.387Z,94.42
2023-03-25T08:56:05.624Z,94.42
2023-03-25T08:58:32.725Z,94.23
2023-03-25T09:00:59.387Z,93.70
2023-03-25T09:03:29.008Z,93.34
2023-03-25T09:05:56.049Z,93.41
2023-03-25T09:08:23.130Z,93.30
2023-03-25T09:10:49.940Z,92.89
2023-03-25T09:13:16.678Z,92.79
2023-03-25T09:15:43.424Z,92.45
2023-03-25T09:18:10.360Z,93.03
2023-03-25T09:20:37.097Z,92.60
2023-03-25T09:23:03.918Z,91.08
2023-03-25T09:25:30.607Z,90.89
2023-03-25T09:27:57.249Z,89.90
2023-03-25T09:30:23.894Z,91.11
2023-03-25T09:32:50.737Z,90.54
2023-03-25T09:35:17.433Z,88.70
2023-03-25T09:37:44.618Z,87.24
2023-03-25T09:40:16.466Z,86.06
2023-03-25T09:42:53.463Z,83.75
2023-03-25T09:45:35.634Z,81.49
2023-03-25T09:48:13.588Z,79.94
2023-03-25T09:50:43.918Z,78.31
2023-03-25T09:53:10.704Z,75.40
2023-03-25T09:55:42.140Z,77.31
2023-03-25T09:58:41.594Z,75.10
2023-03-25T10:01:28.595Z,72.42
2023-03-25T10:04:23.433Z,73.03
2023-03-25T10:06:55.830Z,71.63
2023-03-25T10:09:28.391Z,72.44
2023-03-25T10:12:02.807Z,72.66
2023-03-25T10:15:06.355Z,72.74
2023-03-25T10:17:56.494Z,72.79
2023-03-25T10:20:38.451Z,71.93
2023-03-25T10:23:24.518Z,72.43
2023-03-25T10:25:58.088Z,72.06
2023-03-25T10:28:33.708Z,68.14
2023-03-25T10:31:02.662Z,64.91
2023-03-25T10:33:36.691Z,63.93
2023-03-25T10:36:07.683Z,61.94
2023-03-25T10:38:37.838Z,60.19
2023-03-25T10:41:16.705Z,59.26
2023-03-25T10:43:43.786Z,58.48
2023-03-25T10:46:31.771Z,58.45
2023-03-25T10:48:58.730Z,56.76
2023-03-25T10:51:36.411Z,57.75
2023-03-25T10:54:03.962Z,57.28
2023-03-25T10:56:39.305Z,55.94
2023-03-25T10:59:31.669Z,57.18
2023-03-25T11:01:59.349Z,58.28
2023-03-25T11:04:37.259Z,59.51
2023-03-25T11:07:08.465Z,60.86
2023-03-25T11:09:37.251Z,60.71
2023-03-25T11:12:06.498Z,61.46
2023-03-25T11:14:40.091Z,61.73
2023-03-25T11:17:18.515Z,62.10
2023-03-25T11:20:06.959Z,62.13
2023-03-25T11:22:38.530Z,62.43
2023-03-25T11:25:13.923Z,62.98
2023-03-25T11:27:47.520Z,63.20
2023-03-25T11:30:21.031Z,63.35
2023-03-25T11:33:04.945Z,63.32
2023-03-25T11:35:37.466Z,63.86
2023-03-25T11:38:19.866Z,64.05
2023-03-25T11:40:57.847Z,64.39
2023-03-25T11:43:38.583Z,64.87
2023-03-25T11:46:24.023Z,65.02
2023-03-25T11:48:50.908Z,65.26
2023-03-25T11:51:24.670Z,65.26
2023-03-25T11:53:59.287Z,65.07
2023-03-25T11:56:34.801Z,65.04
2023-03-25T11:59:02.785Z,65.14
2023-03-25T12:01:48.392Z,65.57
2023-03-25T12:04:23.323Z,65.16
2023-03-25T12:06:53.187Z,65.14
2023-03-25T12:09:19.908Z,65.04
2023-03-25T12:11:58.772Z,64.38
2023-03-25T12:14:53.223Z,64.62
2023-03-25T12:17:26.669Z,64.57
2023-03-25T12:20:25.763Z,64.54
2023-03-25T12:23:21.879Z,64.54
2023-03-25T12:26:04.521Z,64.10
2023-03-25T12:28:42.180Z,64.07
2023-03-25T12:31:20.604Z,64.42
2023-03-25T12:34:09.106Z,64.05
2023-03-25T12:36:51.623Z,63.72
2023-03-25T12:39:29.352Z,63.62
2023-03-25T12:42:16.799Z,63.55
2023-03-25T12:45:14.026Z,63.66
2023-03-25T12:47:56.206Z,63.46
2023-03-25T12:50:42.928Z,63.58
2023-03-25T12:53:54.735Z,63.34
2023-03-25T12:56:34.931Z,63.79
2023-03-25T12:59:20.071Z,64.10
2023-03-25T13:02:12.241Z,64.47
2023-03-25T13:04:45.025Z,64.71
2023-03-25T13:07:15.538Z,64.82
2023-03-25T13:09:44.870Z,64.65
2023-03-25T13:12:35.216Z,64.54
2023-03-25T13:15:08.218Z,64.52
2023-03-25T13:17:41.136Z,64.71
2023-03-25T13:20:11.008Z,64.64
2023-03-25T13:22:49.287Z,64.70
2023-03-25T13:25:24.925Z,64.31
2023-03-25T13:27:52.875Z,64.29
2023-03-25T13:30:30.478Z,64.44
2023-03-25T13:33:06.646Z,65.01
2023-03-25T13:35:52.642Z,65.42
2023-03-25T13:38:32.336Z,65.94
2023-03-25T13:41:33.116Z,66.97
2023-03-25T13:44:05.645Z,67.67
2023-03-25T13:47:08.894Z,68.65
2023-03-25T13:49:43.460Z,69.04
2023-03-25T13:52:11.345Z,69.45
2023-03-25T13:55:01.516Z,69.80
2023-03-25T13:57:40.372Z,69.55
2023-03-25T14:00:07.029Z,69.59
2023-03-25T14:02:58.801Z,69.39
2023-03-25T14:05:52.674Z,69.71
2023-03-25T14:08:39.481Z,69.55
2023-03-25T14:11:35.024Z,69.53
2023-03-25T14:14:11.978Z,70.03
2023-03-25T14:16:44.415Z,69.96
2023-03-25T14:19:14.706Z,69.87
2023-03-25T14:21:44.505Z,69.82
2023-03-25T14:24:37.117Z,69.88
2023-03-25T14:27:31.382Z,69.61
2023-03-25T14:30:18.782Z,69.46
2023-03-25T14:32:45.904Z,69.55
2023-03-25T14:35:37.138Z,70.09
2023-03-25T14:38:09.482Z,70.89
2023-03-25T14:40:47.400Z,71.15
2023-03-25T14:43:40.430Z,71.67
2023-03-25T14:46:13.454Z,72.07
2023-03-25T14:48:47.039Z,72.25
2023-03-25T14:51:22.382Z,72.14
2023-03-25T14:54:17.747Z,71.22
2023-03-25T14:56:52.334Z,70.84
2023-03-25T14:59:24.258Z,70.55
2023-03-25T15:01:52.152Z,70.28
2023-03-25T15:04:24.878Z,69.60
2023-03-25T15:06:52.050Z,69.03
2023-03-25T15:09:20.559Z,69.19
2023-03-25T15:12:00.019Z,69.32
2023-03-25T15:14:39.540Z,69.48
2023-03-25T15:17:11.067Z,69.60
2023-03-25T15:19:59.191Z,69.72
2023-03-25T15:22:25.868Z,69.84
2023-03-25T15:24:57.298Z,69.76
2023-03-25T15:27:45.293Z,69.68
2023-03-25T15:30:11.927Z,69.57
2023-03-25T15:32:44.636Z,69.57
2023-03-25T15:35:48.604Z,69.66
2023-03-25T15:38:47.628Z,69.73
2023-03-25T15:41:33.633Z,69.88
2023-03-25T15:44:37.640Z,69.97
2023-03-25T15:47:41.758Z,70.34
2023-03-25T15:50:18.150Z,70.45
2023-03-25T15:53:13.468Z,70.64
2023-03-25T15:55:47.787Z,70.24
2023-03-25T15:58:25.750Z,69.92
2023-03-25T16:00:56.133Z,69.86
2023-03-25T16:03:27.218Z,69.89
2023-03-25T16:06:00.701Z,70.38
2023-03-25T16:08:34.147Z,70.80
2023-03-25T16:11:24.969Z,70.58
2023-03-25T16:14:22.274Z,70.85
2023-03-25T16:16:55.104Z,71.02
2023-03-25T16:19:33.726Z,71.04
2023-03-25T16:22:08.385Z,71.05
2023-03-25T16:24:35.601Z,71.00
2023-03-25T16:27:18.977Z,71.15
2023-03-25T16:29:50.677Z,70.89
2023-03-25T16:32:26.406Z,71.13
2023-03-25T16:34:56.136Z,71.09
2023-03-25T16:37:25.300Z,70.98
2023-03-25T16:39:54.472Z,70.51
2023-03-25T16:42:26.997Z,70.37
2023-03-25T16:44:54.455Z,70.02
2023-03-25T16:47:22.694Z,69.44
2023-03-25T16:49:52.636Z,69.26
2023-03-25T16:52:25.168Z,68.96
2023-03-25T16:54:51.867Z,68.97
2023-03-25T16:57:32.491Z,68.92
2023-03-25T17:00:17.572Z,68.99
2023-03-25T17:02:46.086Z,69.08
2023-03-25T17:05:19.413Z,69.05
2023-03-25T17:07:48.735Z,69.24
2023-03-25T17:10:23.395Z,69.48
2023-03-25T17:12:57.510Z,69.37
2023-03-25T17:15:26.137Z,69.42
2023-03-25T17:18:00.130Z,69.68
2023-03-25T17:20:46.050Z,69.59
2023-03-25T17:23:27.428Z,70.09
2023-03-25T17:25:59.070Z,70.17
2023-03-25T17:28:40.116Z,70.52
2023-03-25T17:31:30.436Z,70.75
2023-03-25T17:34:18.144Z,71.28
2023-03-25T17:36:50.243Z,71.46
2023-03-25T17:39:16.836Z,71.47
2023-03-25T17:41:43.807Z,71.53
2023-03-25T17:44:15.530Z,71.83
2023-03-25T17:46:42.901Z,71.91
2023-03-25T17:49:18.257Z,72.13
2023-03-25T17:51:46.569Z,72.13
2023-03-25T17:54:14.643Z,72.24
2023-03-25T17:56:41.966Z,72.69
2023-03-25T17:59:19.235Z,72.78
2023-03-25T18:01:47.640Z,72.96
2023-03-25T18:04:15.501Z,73.21
2023-03-25T18:06:43.094Z,73.34
2023-03-25T18:09:21.996Z,73.41
2023-03-25T18:11:54.545Z,73.30
2023-03-25T18:14:23.216Z,73.39
2023-03-25T18:16:50.634Z,73.48
2023-03-25T18:19:20.895Z,73.68
2023-03-25T18:21:47.723Z,73.69
2023-03-25T18:24:14.654Z,73.65
2023-03-25T18:26:43.692Z,73.86
2023-03-25T18:29:23.204Z,74.02
2023-03-25T18:31:50.999Z,74.04
2023-03-25T18:34:18.733Z,74.29
2023-03-25T18:36:45.611Z,74.23
2023-03-25T18:39:15.126Z,74.52
2023-03-25T18:41:42.429Z,74.62
2023-03-25T18:44:09.632Z,74.72
2023-03-25T18:46:36.914Z,74.92
2023-03-25T18:49:06.885Z,75.09
2023-03-25T18:51:33.600Z,75.11
2023-03-25T18:54:00.415Z,75.01
2023-03-25T18:56:27.072Z,75.10
2023-03-25T18:58:53.750Z,75.19
2023-03-25T19:01:21.821Z,75.30
2023-03-25T19:03:50.535Z,75.45
2023-03-25T19:06:18.952Z,75.75
2023-03-25T19:08:47.228Z,75.79
2023-03-25T19:11:21.174Z,76.00
2023-03-25T19:13:50.385Z,76.27
2023-03-25T19:16:17.236Z,76.61
2023-03-25T19:18:44.028Z,76.80
2023-03-25T19:21:15.683Z,76.94
2023-03-25T19:23:43.129Z,77.08
2023-03-25T19:26:09.878Z,77.14
2023-03-25T19:28:36.576Z,77.30
2023-03-25T19:31:04.115Z,77.42
2023-03-25T19:33:31.802Z,77.51
2023-03-25T19:36:01.690Z,77.17
2023-03-25T19:38:29.867Z,77.68
2023-03-25T19:41:06.737Z,77.92
2023-03-25T19:43:33.833Z,78.01
2023-03-25T19:46:00.950Z,78.06
2023-03-25T19:48:29.755Z,78.40
2023-03-25T19:50:57.036Z,78.54
2023-03-25T19:53:25.488Z,78.77
2023-03-25T19:55:52.830Z,79.27
2023-03-25T19:58:21.687Z,79.31
2023-03-25T20:00:48.881Z,79.65
2023-03-25T20:03:15.724Z,79.75
2023-03-25T20:05:42.838Z,79.89
2023-03-25T20:08:09.717Z,80.25
2023-03-25T20:10:38.781Z,80.35
2023-03-25T20:13:05.784Z,80.52
2023-03-25T20:15:32.922Z,80.71
2023-03-25T20:17:59.703Z,80.90
2023-03-25T20:20:26.473Z,81.15
2023-03-25T20:22:53.185Z,81.22
2023-03-25T20:25:20.065Z,81.20
2023-03-25T20:27:47.404Z,81.42
2023-03-25T20:30:17.787Z,81.60
2023-03-25T20:32:46.522Z,81.81
2023-03-25T20:35:16.011Z,82.03
2023-03-25T20:37:44.453Z,82.20
2023-03-25T20:40:15.522Z,82.30
2023-03-25T20:42:44.238Z,82.55
2023-03-25T20:45:13.969Z,82.64
2023-03-25T20:47:41.909Z,82.93
2023-03-25T20:50:11.452Z,82.88
2023-03-25T20:52:38.251Z,83.01
2023-03-25T20:55:06.156Z,83.20
2023-03-25T20:57:33.315Z,83.50
2023-03-25T20:59:59.972Z,83.61
2023-03-25T21:02:27.091Z,83.82
2023-03-25T21:04:56.927Z,83.97
2023-03-25T21:07:27.846Z,84.26
2023-03-25T21:09:55.010Z,84.36
2023-03-25T21:12:29.744Z,84.45
2023-03-25T21:14:59.807Z,84.45
2023-03-25T21:17:27.932Z,84.58
2023-03-25T21:19:54.908Z,84.53
2023-03-25T21:22:22.722Z,84.62
2023-03-25T21:24:50.575Z,84.65
2023-03-25T21:27:17.767Z,84.80
2023-03-25T21:29:46.043Z,85.07
2023-03-25T21:32:13.928Z,85.38
2023-03-25T21:34:40.786Z,85.26
2023-03-25T21:37:07.476Z,85.24
2023-03-25T21:39:34.289Z,85.31
2023-03-25T21:42:09.870Z,85.61
2023-03-25T21:44:37.732Z,85.61
2023-03-25T21:47:08.677Z,85.65
2023-03-25T21:49:35.581Z,85.79
2023-03-25T21:52:02.315Z,85.99
2023-03-25T21:54:30.490Z,86.23
2023-03-25T21:56:57.199Z,86.26
2023-03-25T21:59:23.933Z,86.19
2023-03-25T22:01:52.811Z,86.26
2023-03-25T22:04:19.839Z,86.29
2023-03-25T22:06:46.553Z,86.39
2023-03-25T22:09:13.258Z,86.33
2023-03-25T22:11:40.037Z,86.42
2023-03-25T22:14:07.234Z,86.65
2023-03-25T22:16:34.065Z,86.65
2023-03-25T22:19:00.851Z,86.65
2023-03-25T22:21:30.244Z,86.75
2023-03-25T22:23:59.752Z,86.80
2023-03-25T22:26:27.906Z,86.77
2023-03-25T22:28:56.763Z,87.08
2023-03-25T22:31:26.120Z,87.11
2023-03-25T22:34:02.916Z,87.31
2023-03-25T22:36:34.038Z,87.36
2023-03-25T22:39:01.320Z,87.50
2023-03-25T22:41:28.096Z,87.65
2023-03-25T22:43:55.923Z,88.00
2023-03-25T22:46:23.368Z,88.04
2023-03-25T22:48:50.608Z,88.13
2023-03-25T22:51:20.342Z,88.15
2023-03-25T22:53:47.660Z,88.34
2023-03-25T22:56:14.671Z,88.41
2023-03-25T22:58:41.742Z,88.41
2023-03-25T23:01:24.442Z,88.45
2023-03-25T23:03:51.994Z,88.60
2023-03-25T23:06:20.415Z,88.77
2023-03-25T23:08:47.299Z,88.90
2023-03-25T23:11:17.433Z,89.27
2023-03-25T23:13:47.941Z,89.34
2023-03-25T23:16:17.635Z,89.65
2023-03-25T23:18:45.468Z,89.88
2023-03-25T23:21:14.795Z,90.05
2023-03-25T23:23:53.401Z,90.08
2023-03-25T23:26:50.327Z,90.64
2023-03-25T23:29:18.059Z,90.40
2023-03-25T23:31:45.353Z,90.61
2023-03-25T23:34:15.522Z,90.76
2023-03-25T23:36:43.380Z,91.05
2023-03-25T23:39:13.669Z,90.89
2023-03-25T23:41:40.430Z,91.19
2023-03-25T23:44:07.267Z,91.46
2023-03-25T23:46:36.554Z,91.48
2023-03-25T23:49:03.893Z,91.50
2023-03-25T23:51:36.778Z,91.86
2023-03-25T23:54:06.562Z,91.88
2023-03-25T23:56:33.571Z,92.15
2023-03-25T23:59:01.615Z,92.33
